Widukind — CQIK7 — position and weather

sailwx.info

Track history (hours):
 
Tides and Currents Weather Stations Pressure Air Temp Water Temp Dewpoint Dewpoint Depression Visibility Wind Speed Wind Dir Waves Ship Positions

Widukind

Last reported at 2018-Jul-15 13:05 UTC. Time now 2018-Jul-19 13:25 UTC.
Position S 34°02' E 151°16'.

Length 221 m; draft 9.2 m.

Type: Ship (hazmat cat A). MMSI: 255805987.

Date/timePositionNaut miles runAvg speedWind from/ knotsBaromVisibWave heightAir tempDewpointWater temp
2018-Jul-15 13:05S 34°02' E 151°16'112.0
2018-Jul-15 13:00S 34°01' E 151°16'4 8.6
2018-Jul-15 12:30S 33°59' E 151°12'0 0.0
2018-Jul-14 19:26S 33°58' E 151°12'3 6.8
2018-Jul-14 18:57S 34°01' E 151°15'3 7.1
2018-Jul-14 18:30S 33°59' E 151°18'3 5.4
2018-Jul-14 18:00S 33°59' E 151°22'611.9
2018-Jul-14 17:30S 33°54' E 151°26'612.7
2018-Jul-14 17:00S 33°49' E 151°31'612.9
2018-Jul-14 16:30S 33°44' E 151°35'612.8
2018-Jul-14 16:00S 33°39' E 151°40'612.9
2018-Jul-14 15:30S 33°33' E 151°45'3515.0
2018-Jul-14 13:09S 33°11' E 152°18'210.9
2018-Jul-14 12:57S 33°09' E 152°19'510.8
2018-Jul-14 12:30S 33°05' E 152°21'610.9
2018-Jul-14 11:59S 32°60' E 152°23'611.6
2018-Jul-14 11:26S 32°54' E 152°28'511.9
2018-Jul-14 11:00S 32°50' E 152°30'612.8
2018-Jul-14 10:30S 32°44' E 152°33'713.1
2018-Jul-14 10:00S 32°38' E 152°37'612.7
2018-Jul-14 09:30S 32°33' E 152°41'27612.7
2018-Jul-13 11:44S 28°03' E 153°46'1312.5
2018-Jul-13 10:41S 27°49' E 153°45'213.4
2018-Jul-13 10:30S 27°47' E 153°45'713.7
2018-Jul-13 10:00S 27°40' E 153°43'713.9
2018-Jul-13 09:30S 27°33' E 153°42'713.9
2018-Jul-13 09:00S 27°27' E 153°41'43 8.9
2018-Jul-13 04:10S 26°53' E 153°10'319.9
2018-Jul-13 04:00S 26°56' E 153°12'1019.5
2018-Jul-13 03:29S 27°04' E 153°18'919.8
2018-Jul-13 03:00S 27°14' E 153°20'918.1
2018-Jul-13 02:31S 27°19' E 153°12'4 1.2
2018-Jul-12 23:39S 27°22' E 153°10'0 0.0
2018-Jul-12 23:27S 27°22' E 153°10'0 0.0
2018-Jul-12 22:42S 27°22' E 153°10'0 0.0
2018-Jul-12 22:27S 27°22' E 153°10'0 0.0
2018-Jul-12 21:59S 27°22' E 153°10'0 0.0
2018-Jul-12 21:29S 27°22' E 153°10'0 0.0
2018-Jul-12 20:35S 27°22' E 153°10'0 0.0
2018-Jul-12 20:20S 27°22' E 153°10'0 0.0
2018-Jul-12 19:59S 27°22' E 153°10'0 0.0
2018-Jul-12 19:28S 27°22' E 153°10'0 0.0
2018-Jul-12 18:58S 27°22' E 153°10'0 0.0
2018-Jul-12 18:28S 27°22' E 153°10'0 0.0
2018-Jul-12 17:58S 27°22' E 153°10'0 0.0
2018-Jul-12 17:30S 27°22' E 153°10'0 0.0
2018-Jul-12 17:00S 27°22' E 153°10'0 0.0
2018-Jul-12 16:30S 27°22' E 153°10'0 0.0
2018-Jul-12 16:00S 27°22' E 153°10'0 0.0
2018-Jul-12 15:23S 27°22' E 153°10'0 0.0
2018-Jul-12 14:48S 27°22' E 153°10'0 0.0
2018-Jul-12 14:29S 27°22' E 153°10'0 0.0
2018-Jul-12 14:00S 27°22' E 153°10'0 0.0
2018-Jul-12 13:26S 27°22' E 153°10'0 0.0
2018-Jul-12 12:59S 27°22' E 153°10'0 0.0
2018-Jul-12 12:26S 27°22' E 153°10'0 0.0
2018-Jul-12 11:59S 27°22' E 153°10'0 0.0
2018-Jul-12 11:30S 27°22' E 153°10'0 0.8
2018-Jul-12 11:00S 27°22' E 153°10'510.8
2018-Jul-12 10:30S 27°17' E 153°13'713.0
2018-Jul-12 10:00S 27°14' E 153°20'918.2
2018-Jul-12 09:31S 27°05' E 153°19'1019.7
2018-Jul-12 09:01S 26°57' E 153°13'816.5
2018-Jul-12 08:31S 26°49' E 153°10'75017.3
2018-Jul-10 13:05S 22°27' E 166°03'117.8
2018-Jul-10 13:00S 22°26' E 166°04'917.7
2018-Jul-10 12:31S 22°23' E 166°13'510.6
2018-Jul-10 12:00S 22°18' E 166°16'815.5
2018-Jul-10 11:30S 22°15' E 166°23'3 5.6
2018-Jul-10 11:00S 22°16' E 166°26'0 0.0
2018-Jul-10 10:30S 22°16' E 166°26'0 0.0
2018-Jul-10 10:00S 22°16' E 166°26'0 0.0
2018-Jul-10 07:02S 22°16' E 166°26'0 0.0
2018-Jul-10 07:00S 22°16' E 166°26'0 0.0
2018-Jul-10 06:30S 22°16' E 166°26'0 0.0
2018-Jul-10 06:00S 22°16' E 166°26'0 0.0
2018-Jul-10 05:30S 22°16' E 166°26'0 0.0
2018-Jul-10 05:00S 22°16' E 166°26'0 0.0
2018-Jul-10 04:29S 22°16' E 166°26'0 0.0
2018-Jul-10 03:59S 22°16' E 166°26'0 0.0
2018-Jul-10 03:29S 22°16' E 166°26'0 0.0
2018-Jul-10 02:59S 22°16' E 166°26'0 0.0
2018-Jul-10 01:19S 22°16' E 166°26'0 0.0
2018-Jul-10 00:59S 22°16' E 166°26'0 0.0
2018-Jul-10 00:28S 22°16' E 166°26'0 0.0
2018-Jul-09 23:58S 22°16' E 166°26'0 0.0
2018-Jul-09 23:28S 22°16' E 166°26'0 0.0
2018-Jul-09 21:58S 22°16' E 166°26'0 0.0
2018-Jul-09 21:26S 22°16' E 166°26'0 0.0
2018-Jul-09 20:58S 22°16' E 166°26'0 0.0
2018-Jul-09 20:28S 22°16' E 166°26'0 0.0
2018-Jul-09 19:58S 22°16' E 166°26'0 0.4
2018-Jul-09 19:30S 22°16' E 166°26'3 5.2
2018-Jul-09 19:01S 22°16' E 166°23'917.5
2018-Jul-09 18:31S 22°21' E 166°31'918.4
2018-Jul-09 18:00S 22°23' E 166°41'  
Track history (hours):
 
Tides and Currents Weather Stations Pressure Air Temp Water Temp Dewpoint Dewpoint Depression Visibility Wind Speed Wind Dir Waves Ship Positions

Widukind

Last reported at 2018-Jul-15 13:05 UTC. Time now 2018-Jul-19 13:25 UTC.
Position S 34°02' E 151°16'.

Length 221 m; draft 9.2 m.

Type: Ship (hazmat cat A). MMSI: 255805987.

Date/timePositionNaut miles runAvg speedWind from/ knotsBaromVisibWave heightAir tempDewpointWater temp
2018-Jul-15 13:05S 34°02' E 151°16'112.0
2018-Jul-15 13:00S 34°01' E 151°16'4 8.6
2018-Jul-15 12:30S 33°59' E 151°12'0 0.0
2018-Jul-14 19:26S 33°58' E 151°12'3 6.8
2018-Jul-14 18:57S 34°01' E 151°15'3 7.1
2018-Jul-14 18:30S 33°59' E 151°18'3 5.4
2018-Jul-14 18:00S 33°59' E 151°22'611.9
2018-Jul-14 17:30S 33°54' E 151°26'612.7
2018-Jul-14 17:00S 33°49' E 151°31'612.9
2018-Jul-14 16:30S 33°44' E 151°35'612.8
2018-Jul-14 16:00S 33°39' E 151°40'612.9
2018-Jul-14 15:30S 33°33' E 151°45'3515.0
2018-Jul-14 13:09S 33°11' E 152°18'210.9
2018-Jul-14 12:57S 33°09' E 152°19'510.8
2018-Jul-14 12:30S 33°05' E 152°21'610.9
2018-Jul-14 11:59S 32°60' E 152°23'611.6
2018-Jul-14 11:26S 32°54' E 152°28'511.9
2018-Jul-14 11:00S 32°50' E 152°30'612.8
2018-Jul-14 10:30S 32°44' E 152°33'713.1
2018-Jul-14 10:00S 32°38' E 152°37'612.7
2018-Jul-14 09:30S 32°33' E 152°41'27612.7
2018-Jul-13 11:44S 28°03' E 153°46'1312.5
2018-Jul-13 10:41S 27°49' E 153°45'213.4
2018-Jul-13 10:30S 27°47' E 153°45'713.7
2018-Jul-13 10:00S 27°40' E 153°43'713.9
2018-Jul-13 09:30S 27°33' E 153°42'713.9
2018-Jul-13 09:00S 27°27' E 153°41'43 8.9
2018-Jul-13 04:10S 26°53' E 153°10'319.9
2018-Jul-13 04:00S 26°56' E 153°12'1019.5
2018-Jul-13 03:29S 27°04' E 153°18'919.8
2018-Jul-13 03:00S 27°14' E 153°20'918.1
2018-Jul-13 02:31S 27°19' E 153°12'4 1.2
2018-Jul-12 23:39S 27°22' E 153°10'0 0.0
2018-Jul-12 23:27S 27°22' E 153°10'0 0.0
2018-Jul-12 22:42S 27°22' E 153°10'0 0.0
2018-Jul-12 22:27S 27°22' E 153°10'0 0.0
2018-Jul-12 21:59S 27°22' E 153°10'0 0.0
2018-Jul-12 21:29S 27°22' E 153°10'0 0.0
2018-Jul-12 20:35S 27°22' E 153°10'0 0.0
2018-Jul-12 20:20S 27°22' E 153°10'0 0.0
2018-Jul-12 19:59S 27°22' E 153°10'0 0.0
2018-Jul-12 19:28S 27°22' E 153°10'0 0.0
2018-Jul-12 18:58S 27°22' E 153°10'0 0.0
2018-Jul-12 18:28S 27°22' E 153°10'0 0.0
2018-Jul-12 17:58S 27°22' E 153°10'0 0.0
2018-Jul-12 17:30S 27°22' E 153°10'0 0.0
2018-Jul-12 17:00S 27°22' E 153°10'0 0.0
2018-Jul-12 16:30S 27°22' E 153°10'0 0.0
2018-Jul-12 16:00S 27°22' E 153°10'0 0.0
2018-Jul-12 15:23S 27°22' E 153°10'0 0.0
2018-Jul-12 14:48S 27°22' E 153°10'0 0.0
2018-Jul-12 14:29S 27°22' E 153°10'0 0.0
2018-Jul-12 14:00S 27°22' E 153°10'0 0.0
2018-Jul-12 13:26S 27°22' E 153°10'0 0.0
2018-Jul-12 12:59S 27°22' E 153°10'0 0.0
2018-Jul-12 12:26S 27°22' E 153°10'0 0.0
2018-Jul-12 11:59S 27°22' E 153°10'0 0.0
2018-Jul-12 11:30S 27°22' E 153°10'0 0.8
2018-Jul-12 11:00S 27°22' E 153°10'510.8
2018-Jul-12 10:30S 27°17' E 153°13'713.0
2018-Jul-12 10:00S 27°14' E 153°20'918.2
2018-Jul-12 09:31S 27°05' E 153°19'1019.7
2018-Jul-12 09:01S 26°57' E 153°13'816.5
2018-Jul-12 08:31S 26°49' E 153°10'75017.3
2018-Jul-10 13:05S 22°27' E 166°03'117.8
2018-Jul-10 13:00S 22°26' E 166°04'917.7
2018-Jul-10 12:31S 22°23' E 166°13'510.6
2018-Jul-10 12:00S 22°18' E 166°16'815.5
2018-Jul-10 11:30S 22°15' E 166°23'3 5.6
2018-Jul-10 11:00S 22°16' E 166°26'0 0.0
2018-Jul-10 10:30S 22°16' E 166°26'0 0.0
2018-Jul-10 10:00S 22°16' E 166°26'0 0.0
2018-Jul-10 07:02S 22°16' E 166°26'0 0.0
2018-Jul-10 07:00S 22°16' E 166°26'0 0.0
2018-Jul-10 06:30S 22°16' E 166°26'0 0.0
2018-Jul-10 06:00S 22°16' E 166°26'0 0.0
2018-Jul-10 05:30S 22°16' E 166°26'0 0.0
2018-Jul-10 05:00S 22°16' E 166°26'0 0.0
2018-Jul-10 04:29S 22°16' E 166°26'0 0.0
2018-Jul-10 03:59S 22°16' E 166°26'0 0.0
2018-Jul-10 03:29S 22°16' E 166°26'0 0.0
2018-Jul-10 02:59S 22°16' E 166°26'0 0.0
2018-Jul-10 01:19S 22°16' E 166°26'0 0.0
2018-Jul-10 00:59S 22°16' E 166°26'0 0.0
2018-Jul-10 00:28S 22°16' E 166°26'0 0.0
2018-Jul-09 23:58S 22°16' E 166°26'0 0.0
2018-Jul-09 23:28S 22°16' E 166°26'0 0.0
2018-Jul-09 21:58S 22°16' E 166°26'0 0.0
2018-Jul-09 21:26S 22°16' E 166°26'0 0.0
2018-Jul-09 20:58S 22°16' E 166°26'0 0.0
2018-Jul-09 20:28S 22°16' E 166°26'0 0.0
2018-Jul-09 19:58S 22°16' E 166°26'0 0.4
2018-Jul-09 19:30S 22°16' E 166°26'3 5.2
2018-Jul-09 19:01S 22°16' E 166°23'917.5
2018-Jul-09 18:31S 22°21' E 166°31'918.4
2018-Jul-09 18:00S 22°23' E 166°41'  

Dump ship's entire track history